Domov               UVHVVR             MKGP            O straneh              
ZDRAVSTVENO VARSTVO RASTLIN
  MREŽA AGROMET. POSTAJ
 ► PROGNOSTIČNA OBVESTILA
AGROMETEOROLOŠKI PODATKI -
ARSO
OBVLADOVANJE TVEGANJ ZARADI
NEUGODNIH VREMENSKIH RAZMER
  ► NARAVNE NESREČE
  ► SUŠA/MOČA
  ► NAMAKANJE
  ► ŽLED (gozdarstvo)
KARTOGRAFSKI PRIKAZI
SPLETNE POVEZAVE
PROJEKTI IN PUBLIKACIJE

AGROMETEOROLOŠKA MREŽA: VREMENSKE POSTAJE IN FENOLOŠKA OPAZOVANJA

Pregled podatkov za lokacijo Otočec, meteorološka postaja 37169

Pregled senzorjev na lokaciji

ID Ime Zadnja
vrednost
Datum
zadnje
spremembe
Tip
senzorja
3924 Relativna vlaga 2 m (% RH) 87,81 % RH 24.6.2017 21:45 50YA
3925 Temperatura 2 m ( °C) 24,22 °C 24.6.2017 21:45 50YA
3926 Omočenost lista (U) 0 U 24.6.2017 21:45 A730WET
3927 Padavine 0.2 mm (mm) 0 mm 24.6.2017 21:45 Rain-O-Matic

Pregled podatkov zadnjih 24 ur

Zap.
št.
Datum in čas Otočec
Omočenost
lista
Padavine
0.2
mm
Relativna
vlaga
2
m
Temperatura
2
m
0 24.6.2017 21:00 0 0 87,81 24,22
1 24.6.2017 20:30 0 0 85,69 24,69
2 24.6.2017 20:00 0 0 83,33 25,32
3 24.6.2017 19:30 0 0 80,22 26,23
4 24.6.2017 19:00 0 0 75,65 27,42
5 24.6.2017 18:30 0 0 70,16 29,26
6 24.6.2017 18:00 0 0 60,05 30,99
7 24.6.2017 17:30 0 0 59,95 31,4
8 24.6.2017 17:00 0 0 65,98 29,65
9 24.6.2017 16:30 0 0 76,17 27,03
10 24.6.2017 16:00 0 0 76,14 26,57
11 24.6.2017 15:30 0 0 73,36 27,84
12 24.6.2017 15:00 0 0 63,17 30,67
13 24.6.2017 14:30 0 0 55,02 32,63
14 24.6.2017 14:00 0 0 71,09 29,08
15 24.6.2017 13:30 0 0 60,42 30,4
16 24.6.2017 13:00 0 0 58,19 31,18
17 24.6.2017 12:30 0 0 56,21 32,11
18 24.6.2017 12:00 0 0 56,09 31,36
19 24.6.2017 11:30 0 0 57,14 31,31
20 24.6.2017 11:00 0 0 56,19 31,38
21 24.6.2017 10:30 0 0 59,63 30,16
22 24.6.2017 10:00 0 0 60,07 30,09
23 24.6.2017 09:30 0 0 61,78 29,01
24 24.6.2017 09:00 0 0 64,1 28,47
25 24.6.2017 08:30 0 0 67,16 27,72
26 24.6.2017 08:00 0 0 68,79 27,23
27 24.6.2017 07:30 0 0 72,01 26,25
28 24.6.2017 07:00 0 0 76,26 24,93
29 24.6.2017 06:30 0 0 85,86 22,49
30 24.6.2017 06:00 0 0 90,82 21,37
31 24.6.2017 05:30 0 0 93,24 20,49
32 24.6.2017 05:00 0 0 95,58 19,95
33 24.6.2017 04:30 0 0 95,14 20
34 24.6.2017 04:00 0 0 93,43 20,42
35 24.6.2017 03:30 0 0 92,21 20,81
36 24.6.2017 03:00 0 0 91,67 21,07
37 24.6.2017 02:30 0 0 89,89 21,49
38 24.6.2017 02:00 0 0 90,55 21,29
39 24.6.2017 01:30 0 0 91,14 21,05
40 24.6.2017 01:00 0 0 90,7 21,12
41 24.6.2017 00:30 0 0 88,5 21,73
42 24.6.2017 00:00 0 0 82,17 23,17
43 23.6.2017 23:30 0 0 81,32 23,25
44 23.6.2017 23:00 0 0 78,17 24,05
© 2011 Ministrstvo za kmetijstvo, gozdarstvo in prehrano. Vse pravice pridržane.